Time;durP1;ratioP1;P1;durP2;ratioP2;P2;SDS_P1;SDS_P2;PMS_P1;PMS_P2;Temp;Humidity;BMP_temperature;BMP_pressure;BME280_temperature;BME280_humidity;BME280_pressure;Samples;Min_cycle;Max_cycle;Signal;HPM_P1;HPM_P2
2021/10/24 00:01:58;;;;;;;24.40;5.03;;;4.30;97.60;;;;;;4973817;28;20033;-83
2021/10/24 00:04:23;;;;;;;14.27;5.18;;;4.30;97.80;;;;;;4977193;28;20031;-82
2021/10/24 00:06:49;;;;;;;18.25;5.30;;;4.20;97.90;;;;;;4972056;28;20412;-83
2021/10/24 00:09:15;;;;;;;18.33;5.18;;;4.20;98.00;;;;;;4972016;28;20035;-82
2021/10/24 00:11:40;;;;;;;11.82;4.88;;;4.20;98.00;;;;;;4974065;28;20023;-83
2021/10/24 00:14:07;;;;;;;14.68;5.72;;;4.20;98.10;;;;;;4969633;28;20034;-84
2021/10/24 00:16:33;;;;;;;16.65;5.18;;;4.10;98.20;;;;;;4975011;28;20022;-83
2021/10/24 00:19:00;;;;;;;18.38;5.32;;;4.30;98.30;;;;;;4967819;28;20106;-82
2021/10/24 00:21:25;;;;;;;22.55;5.38;;;4.30;98.30;;;;;;4974379;28;20038;-82
2021/10/24 00:23:51;;;;;;;19.20;5.50;;;4.40;98.30;;;;;;4972815;28;20031;-82
2021/10/24 00:26:17;;;;;;;19.17;6.07;;;4.40;98.20;;;;;;4964315;28;20066;-83
2021/10/24 00:28:43;;;;;;;19.83;5.22;;;4.50;98.20;;;;;;4967971;28;20027;-82
2021/10/24 00:31:08;;;;;;;22.77;5.50;;;4.50;98.10;;;;;;4969684;28;20038;-83
2021/10/24 00:33:34;;;;;;;20.65;5.60;;;4.50;97.80;;;;;;4970419;28;20030;-82
2021/10/24 00:36:00;;;;;;;16.92;5.00;;;4.50;97.70;;;;;;4973278;28;20509;-82
2021/10/24 00:38:25;;;;;;;18.25;5.97;;;4.50;97.70;;;;;;4973819;28;20150;-82
2021/10/24 00:40:51;;;;;;;21.27;5.53;;;4.40;97.60;;;;;;4966940;28;20062;-82
2021/10/24 00:43:16;;;;;;;20.20;5.20;;;4.30;97.60;;;;;;4970782;28;20034;-83
2021/10/24 00:45:42;;;;;;;14.43;5.88;;;4.20;97.60;;;;;;4967991;28;20035;-82
2021/10/24 00:48:08;;;;;;;25.35;5.82;;;4.20;97.80;;;;;;4969078;28;20034;-82
2021/10/24 00:50:35;;;;;;;17.13;5.20;;;4.20;97.90;;;;;;4972936;28;20031;-83
2021/10/24 00:53:02;;;;;;;13.02;5.03;;;4.30;98.00;;;;;;4973324;28;20027;-82
2021/10/24 00:55:28;;;;;;;19.38;5.07;;;4.30;97.90;;;;;;4972591;28;20035;-82
2021/10/24 00:57:53;;;;;;;20.05;5.57;;;4.30;97.70;;;;;;4973674;28;20034;-82
2021/10/24 01:00:19;;;;;;;22.77;5.88;;;4.30;97.80;;;;;;4973334;28;20396;-82
2021/10/24 01:02:45;;;;;;;22.17;5.50;;;4.40;97.90;;;;;;4970142;28;20066;-83
2021/10/24 01:05:13;;;;;;;16.20;4.43;;;4.20;97.60;;;;;;4975357;28;20029;-82
2021/10/24 01:07:41;;;;;;;12.07;4.72;;;4.30;97.60;;;;;;4974968;28;20030;-82
2021/10/24 01:10:08;;;;;;;14.38;4.50;;;4.30;97.60;;;;;;4976729;28;20027;-83
2021/10/24 01:12:36;;;;;;;18.25;5.25;;;4.10;97.50;;;;;;4977071;28;20578;-82
2021/10/24 01:15:02;;;;;;;10.70;4.47;;;4.10;97.60;;;;;;4969568;28;20145;-82
2021/10/24 01:17:30;;;;;;;18.10;4.65;;;4.10;97.80;;;;;;4978061;28;20031;-83
2021/10/24 01:19:55;;;;;;;18.05;4.45;;;4.20;97.90;;;;;;4974178;28;20023;-82
2021/10/24 01:22:20;;;;;;;15.80;4.43;;;4.20;97.80;;;;;;4974455;28;20027;-82
2021/10/24 01:24:46;;;;;;;17.80;4.93;;;4.20;97.80;;;;;;4975213;28;20040;-82
2021/10/24 01:27:11;;;;;;;18.58;4.88;;;4.20;97.70;;;;;;4976956;28;20027;-82
2021/10/24 01:29:37;;;;;;;19.05;4.82;;;4.20;97.70;;;;;;4977238;28;20045;-82
2021/10/24 01:32:02;;;;;;;18.17;5.25;;;4.20;97.70;;;;;;4982200;28;20121;-82
2021/10/24 01:34:28;;;;;;;18.73;5.07;;;4.20;97.70;;;;;;4976511;28;20500;-83
2021/10/24 01:36:53;;;;;;;15.93;5.07;;;4.20;97.70;;;;;;4979291;28;20045;-82
2021/10/24 01:39:19;;;;;;;20.25;5.38;;;4.30;97.80;;;;;;4971702;28;20567;-83
2021/10/24 01:41:45;;;;;;;15.65;4.80;;;4.20;97.60;;;;;;4973718;28;20019;-82
2021/10/24 01:44:10;;;;;;;16.77;5.13;;;4.20;97.60;;;;;;4974986;28;20422;-83
2021/10/24 01:46:36;;;;;;;18.60;5.05;;;4.10;97.40;;;;;;4972967;28;20047;-80
2021/10/24 01:49:01;;;;;;;17.27;6.63;;;4.10;97.50;;;;;;4975369;28;20066;-83
2021/10/24 01:51:27;;;;;;;16.38;5.00;;;4.10;97.50;;;;;;4975174;28;20116;-82
2021/10/24 01:53:52;;;;;;;13.25;4.68;;;4.10;97.50;;;;;;4975020;28;20038;-82
2021/10/24 01:56:18;;;;;;;14.88;5.00;;;4.10;97.70;;;;;;4975531;28;20097;-82
2021/10/24 01:58:44;;;;;;;17.42;4.70;;;4.10;97.50;;;;;;4970177;28;20484;-80
2021/10/24 02:01:10;;;;;;;13.25;4.75;;;4.10;97.40;;;;;;4973136;28;20307;-81
2021/10/24 02:03:36;;;;;;;16.05;5.07;;;4.10;97.30;;;;;;4971459;28;20041;-80
2021/10/24 02:06:02;;;;;;;15.20;5.25;;;4.00;97.40;;;;;;4971411;28;20058;-80
2021/10/24 02:08:28;;;;;;;14.10;4.35;;;4.00;97.50;;;;;;4972744;28;20023;-81
2021/10/24 02:10:53;;;;;;;16.85;4.82;;;4.10;97.60;;;;;;4972391;28;20041;-81
2021/10/24 02:13:19;;;;;;;13.48;5.30;;;4.10;97.50;;;;;;4971716;28;20105;-82
2021/10/24 02:15:44;;;;;;;19.33;4.90;;;4.10;97.30;;;;;;4966093;28;20543;-82
2021/10/24 02:18:10;;;;;;;17.67;4.85;;;4.10;97.30;;;;;;4969755;28;20318;-81
2021/10/24 02:20:37;;;;;;;12.93;4.80;;;4.00;97.20;;;;;;4969909;28;21501;-82
2021/10/24 02:23:05;;;;;;;16.13;5.18;;;4.00;97.50;;;;;;4971177;28;20031;-81
2021/10/24 02:25:33;;;;;;;16.33;4.97;;;4.00;97.50;;;;;;4967888;28;20281;-82
2021/10/24 02:27:59;;;;;;;13.77;5.20;;;4.00;97.40;;;;;;4965870;28;20055;-81
2021/10/24 02:30:24;;;;;;;12.32;4.68;;;4.00;97.40;;;;;;4969101;28;20467;-81
2021/10/24 02:32:50;;;;;;;15.65;5.57;;;4.00;97.40;;;;;;4972659;23;20182;-75
2021/10/24 02:35:16;;;;;;;16.40;5.38;;;4.00;97.50;;;;;;4943478;28;20202;-76
2021/10/24 02:37:43;;;;;;;14.75;4.68;;;3.90;97.30;;;;;;4953395;28;20029;-77
2021/10/24 02:40:10;;;;;;;12.60;4.57;;;3.90;97.40;;;;;;4947948;28;20089;-76
2021/10/24 02:42:36;;;;;;;13.98;5.38;;;3.90;97.50;;;;;;4946498;28;20106;-76
2021/10/24 02:45:03;;;;;;;14.73;4.60;;;3.90;97.40;;;;;;4947053;28;20212;-74
2021/10/24 02:47:28;;;;;;;12.98;4.88;;;3.90;97.50;;;;;;4946416;28;20169;-76
2021/10/24 02:49:54;;;;;;;14.73;5.25;;;3.90;97.40;;;;;;4947326;28;20475;-75
2021/10/24 02:52:19;;;;;;;12.80;5.22;;;3.90;97.40;;;;;;4944741;28;20300;-75
2021/10/24 02:54:45;;;;;;;15.43;5.30;;;4.00;97.50;;;;;;4949489;28;20465;-76
2021/10/24 02:57:10;;;;;;;19.98;5.15;;;4.00;97.40;;;;;;4947255;28;20039;-75
2021/10/24 02:59:36;;;;;;;18.40;5.18;;;3.90;97.40;;;;;;4949336;28;20365;-76
2021/10/24 03:02:03;;;;;;;12.90;5.15;;;4.00;97.40;;;;;;4944928;28;20035;-75
2021/10/24 03:04:28;;;;;;;16.55;5.15;;;4.10;97.40;;;;;;4947461;28;20024;-76
2021/10/24 03:06:54;;;;;;;13.13;4.55;;;4.10;97.00;;;;;;4944789;28;20425;-74
2021/10/24 03:09:20;;;;;;;17.90;4.88;;;4.10;96.90;;;;;;4948063;28;20074;-75
2021/10/24 03:11:46;;;;;;;12.38;4.90;;;4.10;96.70;;;;;;4946766;28;20372;-75
2021/10/24 03:14:12;;;;;;;18.30;4.75;;;4.10;96.50;;;;;;4945336;28;20061;-76
2021/10/24 03:16:37;;;;;;;16.08;4.78;;;4.10;96.50;;;;;;4943073;28;20034;-74
2021/10/24 03:19:03;;;;;;;12.48;4.80;;;4.10;96.50;;;;;;4949075;28;20477;-75
2021/10/24 03:21:30;;;;;;;15.38;5.03;;;4.10;96.60;;;;;;4944720;28;20027;-78
2021/10/24 03:23:57;;;;;;;13.50;5.55;;;4.10;96.60;;;;;;4946941;28;20179;-75
2021/10/24 03:26:22;;;;;;;18.08;4.40;;;4.10;96.70;;;;;;4946601;28;20433;-75
2021/10/24 03:28:48;;;;;;;21.63;4.82;;;4.00;96.70;;;;;;4942809;28;20037;-74
2021/10/24 03:31:13;;;;;;;14.35;4.70;;;4.00;96.60;;;;;;4945737;28;20074;-75
2021/10/24 03:33:39;;;;;;;15.90;4.82;;;4.00;96.90;;;;;;4946318;28;20061;-74
2021/10/24 03:36:04;;;;;;;13.80;4.72;;;4.00;96.70;;;;;;4946334;28;20310;-75
2021/10/24 03:38:30;;;;;;;10.05;4.45;;;4.10;96.60;;;;;;4943891;28;20190;-76
2021/10/24 03:40:56;;;;;;;11.73;4.57;;;4.00;96.60;;;;;;4947640;28;20046;-77
2021/10/24 03:43:21;;;;;;;16.58;4.90;;;4.00;96.60;;;;;;4942579;28;20029;-74
2021/10/24 03:45:47;;;;;;;10.43;4.47;;;3.90;96.70;;;;;;4944599;28;20024;-74
2021/10/24 03:48:12;;;;;;;19.27;5.30;;;4.00;96.80;;;;;;4948233;28;20031;-77
2021/10/24 03:50:38;;;;;;;14.60;4.78;;;4.10;96.80;;;;;;4942481;28;20450;-77
2021/10/24 03:53:03;;;;;;;12.00;4.90;;;4.00;96.60;;;;;;4948898;28;20131;-75
2021/10/24 03:55:29;;;;;;;13.45;4.60;;;4.00;96.60;;;;;;4945265;28;20213;-75
2021/10/24 03:57:54;;;;;;;15.73;5.60;;;4.00;96.60;;;;;;4943848;28;20038;-77
2021/10/24 04:00:20;;;;;;;15.70;4.90;;;4.00;96.70;;;;;;4950162;28;20045;-75
2021/10/24 04:03:04;;;;;;;19.90;5.53;;;3.90;96.50;;;;;;4949032;28;20027;-78
2021/10/24 04:05:31;;;;;;;22.50;5.22;;;3.90;96.60;;;;;;4945790;28;20027;-76
2021/10/24 04:07:56;;;;;;;15.18;5.15;;;3.80;96.70;;;;;;4944726;28;20068;-75
2021/10/24 04:10:23;;;;;;;16.27;5.03;;;3.90;96.70;;;;;;4945217;28;20142;-75
2021/10/24 04:12:50;;;;;;;14.52;5.18;;;3.90;96.80;;;;;;4946409;28;20107;-78
2021/10/24 04:15:17;;;;;;;10.73;5.15;;;3.90;96.60;;;;;;4946069;28;20365;-75
2021/10/24 04:17:43;;;;;;;18.08;5.20;;;3.90;96.80;;;;;;4949645;28;20774;-76
2021/10/24 04:20:11;;;;;;;17.33;5.30;;;3.90;96.90;;;;;;4946755;28;20035;-77
2021/10/24 04:22:37;;;;;;;12.18;5.32;;;3.90;96.80;;;;;;4947635;28;20053;-77
2021/10/24 04:25:04;;;;;;;22.50;5.38;;;4.00;96.70;;;;;;4945030;28;20081;-79
2021/10/24 04:27:29;;;;;;;17.10;5.55;;;4.00;96.50;;;;;;4944779;28;20045;-75
2021/10/24 04:29:55;;;;;;;13.40;5.65;;;4.00;96.40;;;;;;4950019;28;20456;-78
2021/10/24 04:32:21;;;;;;;17.60;5.90;;;4.10;96.40;;;;;;4944884;28;20071;-75
2021/10/24 04:34:46;;;;;;;17.45;5.40;;;4.00;96.10;;;;;;4945386;28;20110;-76
2021/10/24 04:37:12;;;;;;;16.27;5.13;;;3.90;96.10;;;;;;4944861;28;20079;-76
2021/10/24 04:39:37;;;;;;;15.82;5.47;;;3.90;96.20;;;;;;4948128;28;20038;-74
2021/10/24 04:42:03;;;;;;;15.07;5.28;;;3.90;96.30;;;;;;4948451;28;20023;-75
2021/10/24 04:44:29;;;;;;;12.48;5.32;;;3.80;96.30;;;;;;4952099;28;20031;-76
2021/10/24 04:46:54;;;;;;;16.77;5.22;;;3.80;96.30;;;;;;4948634;28;20110;-76
2021/10/24 04:49:21;;;;;;;12.02;4.57;;;3.80;96.30;;;;;;4948971;28;20401;-75
2021/10/24 04:51:47;;;;;;;15.23;5.40;;;3.80;96.30;;;;;;4947865;28;20027;-75
2021/10/24 04:54:13;;;;;;;9.70;4.53;;;3.80;95.90;;;;;;4953059;28;20122;-76
2021/10/24 04:56:38;;;;;;;15.73;5.72;;;3.70;96.10;;;;;;4950331;28;20308;-75
2021/10/24 04:59:04;;;;;;;15.95;5.35;;;3.60;96.20;;;;;;4953485;28;20395;-74
2021/10/24 05:01:29;;;;;;;16.08;5.13;;;3.40;96.30;;;;;;4950175;28;20078;-75
2021/10/24 05:03:55;;;;;;;15.70;5.32;;;3.40;96.60;;;;;;4950092;28;20030;-76
2021/10/24 05:06:20;;;;;;;14.20;5.57;;;3.40;96.70;;;;;;4945716;28;20043;-75
2021/10/24 05:08:46;;;;;;;16.67;6.03;;;3.40;96.80;;;;;;4945190;28;20098;-75
2021/10/24 05:11:11;;;;;;;19.73;5.93;;;3.40;96.90;;;;;;4947024;28;20113;-75
2021/10/24 05:13:37;;;;;;;18.60;5.32;;;3.40;96.60;;;;;;4946744;28;20109;-75
2021/10/24 05:16:02;;;;;;;16.23;5.95;;;3.40;96.70;;;;;;4949376;28;20098;-75
2021/10/24 05:18:28;;;;;;;10.50;5.05;;;3.40;96.70;;;;;;4950353;28;20097;-77
2021/10/24 05:20:54;;;;;;;12.45;5.57;;;3.30;96.70;;;;;;4948729;28;20035;-78
2021/10/24 05:23:19;;;;;;;23.52;5.82;;;3.20;96.70;;;;;;4944304;28;20035;-79
2021/10/24 05:25:45;;;;;;;17.10;5.93;;;3.20;96.90;;;;;;4945167;28;20035;-79
2021/10/24 05:28:10;;;;;;;13.68;5.55;;;3.10;97.00;;;;;;4945969;28;20115;-75
2021/10/24 05:30:36;;;;;;;18.23;6.32;;;3.00;97.00;;;;;;4951316;28;20114;-77
2021/10/24 05:33:01;;;;;;;18.80;5.57;;;3.00;97.10;;;;;;4951158;28;20064;-77
2021/10/24 05:35:27;;;;;;;22.73;6.90;;;3.00;97.20;;;;;;4946280;28;20030;-76
2021/10/24 05:37:53;;;;;;;19.60;5.95;;;3.00;97.30;;;;;;4951554;28;20023;-77
2021/10/24 05:40:19;;;;;;;16.13;5.85;;;3.00;97.30;;;;;;4947485;28;20027;-77
2021/10/24 05:42:44;;;;;;;15.02;6.38;;;3.00;97.50;;;;;;4948622;28;20031;-78
2021/10/24 05:45:10;;;;;;;17.23;6.90;;;3.00;97.60;;;;;;4950659;28;20047;-76
2021/10/24 05:47:35;;;;;;;14.27;6.38;;;3.00;97.40;;;;;;4947357;29;20042;-77
2021/10/24 05:50:01;;;;;;;16.05;7.40;;;3.00;97.50;;;;;;4949120;28;20376;-79
2021/10/24 05:52:27;;;;;;;16.33;7.10;;;2.90;97.60;;;;;;4947377;28;20101;-77
2021/10/24 05:54:53;;;;;;;16.50;6.95;;;3.00;97.60;;;;;;4953666;28;20461;-77
2021/10/24 05:57:18;;;;;;;13.38;6.25;;;3.00;97.60;;;;;;4951935;28;20090;-77
2021/10/24 05:59:44;;;;;;;18.83;7.30;;;3.00;97.70;;;;;;4950243;28;20132;-79
2021/10/24 06:02:10;;;;;;;17.02;6.97;;;3.00;97.70;;;;;;4949437;28;20050;-78
2021/10/24 06:04:36;;;;;;;17.75;7.57;;;2.90;97.60;;;;;;4952401;28;20105;-77
2021/10/24 06:07:02;;;;;;;24.33;7.82;;;3.00;97.70;;;;;;4945559;28;20389;-77
2021/10/24 06:09:30;;;;;;;15.85;7.75;;;3.00;97.70;;;;;;4949127;28;20035;-76
2021/10/24 06:12:01;;;;;;;18.75;7.55;;;2.90;97.70;;;;;;4935588;28;20023;-80
2021/10/24 06:14:26;;;;;;;15.93;7.88;;;3.00;97.70;;;;;;4955154;28;20039;-78
2021/10/24 06:16:52;;;;;;;21.55;7.82;;;3.10;97.70;;;;;;4946602;28;20436;-79
2021/10/24 06:19:17;;;;;;;17.70;7.35;;;3.10;97.70;;;;;;4946399;28;20023;-80
2021/10/24 06:21:43;;;;;;;21.10;8.57;;;3.10;97.50;;;;;;4946273;28;20394;-78
2021/10/24 06:24:09;;;;;;;16.30;7.45;;;3.10;97.60;;;;;;4945010;28;20074;-79
2021/10/24 06:26:34;;;;;;;16.77;7.70;;;3.10;97.60;;;;;;4963422;28;20078;-78
2021/10/24 06:29:00;;;;;;;21.92;7.40;;;3.10;97.50;;;;;;4946886;28;20369;-80
2021/10/24 06:31:25;;;;;;;18.80;8.23;;;3.10;97.40;;;;;;4950001;28;20031;-78
2021/10/24 06:33:51;;;;;;;20.55;8.23;;;3.10;97.50;;;;;;4951076;28;20127;-77
2021/10/24 06:36:17;;;;;;;20.13;8.02;;;3.00;97.50;;;;;;4947361;28;20400;-81
2021/10/24 06:38:43;;;;;;;16.23;7.35;;;3.10;97.60;;;;;;4946435;28;20042;-77
2021/10/24 06:41:08;;;;;;;17.63;7.22;;;3.10;97.60;;;;;;4950729;28;20593;-79
2021/10/24 06:43:34;;;;;;;19.00;8.38;;;3.10;97.60;;;;;;4950080;28;20098;-80
2021/10/24 06:46:00;;;;;;;21.50;8.70;;;3.10;97.60;;;;;;4948831;28;20038;-77
2021/10/24 06:48:25;;;;;;;19.60;8.75;;;3.10;97.70;;;;;;4945317;28;20200;-76
2021/10/24 06:50:51;;;;;;;18.77;8.10;;;3.20;97.70;;;;;;4941804;28;20050;-77
2021/10/24 06:53:16;;;;;;;19.67;7.85;;;3.20;97.60;;;;;;4945749;28;20053;-80
2021/10/24 06:55:42;;;;;;;19.73;8.35;;;3.30;97.50;;;;;;4947490;28;20470;-78
2021/10/24 06:58:07;;;;;;;20.45;8.38;;;3.30;97.40;;;;;;4946088;28;20059;-77
2021/10/24 07:00:33;;;;;;;25.13;8.50;;;3.30;97.40;;;;;;4946282;28;20054;-79
2021/10/24 07:02:58;;;;;;;15.35;7.63;;;3.40;97.30;;;;;;4946582;28;20502;-77
2021/10/24 07:05:24;;;;;;;16.95;7.55;;;3.50;97.20;;;;;;4946162;28;20339;-77
2021/10/24 07:07:50;;;;;;;20.88;8.48;;;3.50;97.20;;;;;;4941723;29;20023;-79
2021/10/24 07:10:16;;;;;;;16.55;7.38;;;3.60;97.10;;;;;;4945288;28;20473;-77
2021/10/24 07:12:42;;;;;;;23.75;7.53;;;3.60;97.00;;;;;;4944064;28;20032;-79
2021/10/24 07:15:09;;;;;;;16.83;7.10;;;3.60;96.80;;;;;;4949350;28;20107;-77
2021/10/24 07:17:36;;;;;;;17.25;6.85;;;3.60;96.70;;;;;;4948311;28;20448;-79
2021/10/24 07:20:03;;;;;;;13.38;6.75;;;3.60;96.70;;;;;;4945576;28;20545;-76
2021/10/24 07:22:29;;;;;;;18.70;7.63;;;3.60;96.70;;;;;;4958396;28;20078;-78
2021/10/24 07:24:54;;;;;;;17.25;6.32;;;3.60;96.60;;;;;;4943213;28;20473;-77
2021/10/24 07:27:20;;;;;;;21.30;6.55;;;3.70;96.60;;;;;;4944267;28;20293;-79
2021/10/24 07:29:45;;;;;;;16.05;6.93;;;3.70;96.50;;;;;;4950075;28;20485;-76
2021/10/24 07:32:11;;;;;;;20.88;6.63;;;3.70;96.50;;;;;;4945602;28;20070;-78
2021/10/24 07:34:36;;;;;;;12.45;5.97;;;3.80;96.50;;;;;;4946874;28;20121;-81
2021/10/24 07:37:02;;;;;;;13.85;6.30;;;3.80;96.50;;;;;;4941406;28;20043;-78
2021/10/24 07:39:28;;;;;;;16.70;5.70;;;3.90;96.30;;;;;;4945781;28;20504;-78
2021/10/24 07:41:54;;;;;;;13.18;6.60;;;3.90;96.30;;;;;;4950421;28;20110;-77
2021/10/24 07:44:20;;;;;;;15.45;6.32;;;4.00;96.20;;;;;;4943757;28;20020;-78
2021/10/24 07:46:46;;;;;;;12.10;6.20;;;4.00;96.00;;;;;;4948918;28;20038;-77
2021/10/24 07:49:13;;;;;;;12.15;6.20;;;4.10;95.70;;;;;;4946402;28;20050;-79
2021/10/24 07:51:39;;;;;;;16.42;6.60;;;4.10;95.80;;;;;;4944498;28;20094;-78
2021/10/24 07:54:05;;;;;;;16.70;5.80;;;4.20;95.50;;;;;;4942247;28;20421;-77
2021/10/24 07:56:33;;;;;;;13.50;6.00;;;4.40;95.80;;;;;;4946413;28;20209;-80
2021/10/24 07:59:00;;;;;;;15.50;5.78;;;4.40;95.40;;;;;;4943977;28;20382;-80
2021/10/24 08:01:25;;;;;;;14.15;6.18;;;4.60;95.80;;;;;;4942771;28;20019;-80
2021/10/24 08:03:51;;;;;;;14.27;5.72;;;4.70;95.10;;;;;;4943357;28;20049;-76
2021/10/24 08:06:21;;;;;;;13.43;5.32;;;4.80;94.70;;;;;;4945522;28;20031;-77
2021/10/24 08:08:47;;;;;;;12.93;5.20;;;4.80;94.20;;;;;;4943217;28;20039;-76
2021/10/24 08:11:12;;;;;;;13.60;5.05;;;4.80;93.90;;;;;;4958944;28;20381;-76
2021/10/24 08:13:38;;;;;;;13.93;5.57;;;4.80;94.30;;;;;;4944666;28;20035;-80
2021/10/24 08:16:04;;;;;;;10.88;4.75;;;4.90;94.20;;;;;;4942943;28;20138;-78
2021/10/24 08:18:29;;;;;;;10.98;4.85;;;4.80;94.10;;;;;;4945654;28;20047;-78
2021/10/24 08:20:54;;;;;;;15.38;5.35;;;4.90;94.10;;;;;;4947226;28;20070;-77
2021/10/24 08:23:20;;;;;;;14.30;5.22;;;5.10;94.60;;;;;;4945611;28;20058;-77
2021/10/24 08:25:45;;;;;;;10.63;4.55;;;5.20;93.60;;;;;;4944637;28;20105;-78
2021/10/24 08:28:11;;;;;;;12.57;4.45;;;5.40;93.80;;;;;;4943340;28;20397;-79
2021/10/24 08:30:37;;;;;;;14.15;5.50;;;5.60;92.80;;;;;;4945073;28;20031;-78
2021/10/24 08:33:02;;;;;;;8.27;4.10;;;5.70;93.20;;;;;;4989086;23;20055;-75
2021/10/24 08:35:29;;;;;;;11.07;4.85;;;5.70;92.70;;;;;;4959195;28;20026;-74
2021/10/24 08:37:54;;;;;;;9.65;3.97;;;6.00;93.60;;;;;;4961119;28;20495;-75
2021/10/24 08:40:20;;;;;;;11.70;4.30;;;5.90;92.40;;;;;;4963364;28;20042;-73
2021/10/24 08:42:51;;;;;;;9.23;4.32;;;6.10;92.60;;;;;;4963589;28;20468;-73
2021/10/24 08:45:18;;;;;;;;;;;6.10;92.20;;;;;;4945560;28;20054;-73
2021/10/24 08:47:43;;;;;;;11.30;4.60;;;6.00;90.70;;;;;;4942547;28;19922;-73
2021/10/24 08:50:10;;;;;;;9.00;3.50;;;6.20;91.90;;;;;;4941772;28;20046;-73
2021/10/24 08:52:39;;;;;;;9.68;4.05;;;6.30;90.70;;;;;;4958763;28;20126;-73
2021/10/24 08:55:08;;;;;;;12.05;4.15;;;6.40;91.10;;;;;;4952130;28;20468;-73
2021/10/24 08:57:34;;;;;;;11.70;4.15;;;6.50;90.10;;;;;;4946555;28;20035;-73
2021/10/24 09:00:01;;;;;;;10.32;3.92;;;6.70;89.90;;;;;;4955997;28;20034;-73
2021/10/24 09:03:16;;;;;;;10.43;3.70;;;6.90;89.20;;;;;;4957999;28;20047;-73
2021/10/24 09:05:44;;;;;;;10.70;4.53;;;7.00;88.40;;;;;;4931960;28;20050;-73
2021/10/24 09:08:23;;;;;;;8.57;4.10;;;7.20;88.80;;;;;;4953770;28;20062;-73
2021/10/24 09:10:54;;;;;;;9.95;4.07;;;7.30;87.70;;;;;;4943413;28;20023;-75
2021/10/24 09:13:28;;;;;;;10.27;4.07;;;7.50;88.60;;;;;;4945002;28;20023;-75
2021/10/24 09:16:00;;;;;;;9.15;3.65;;;7.40;87.10;;;;;;4940017;28;20050;-76
2021/10/24 09:18:31;;;;;;;7.80;3.35;;;7.60;86.20;;;;;;4943108;28;20054;-75
2021/10/24 09:20:57;;;;;;;17.38;3.90;;;7.70;86.80;;;;;;4943944;28;20031;-73
2021/10/24 09:23:23;;;;;;;11.02;3.55;;;7.80;86.10;;;;;;4944608;28;20082;-73
2021/10/24 09:25:54;;;;;;;7.68;3.55;;;7.80;85.10;;;;;;4953003;28;20027;-73
2021/10/24 09:28:22;;;;;;;8.52;3.33;;;8.00;85.20;;;;;;4957647;28;20034;-73
2021/10/24 09:30:58;;;;;;;9.15;3.22;;;8.10;85.30;;;;;;4948366;28;20074;-73
2021/10/24 09:33:24;;;;;;;7.95;3.25;;;8.30;85.30;;;;;;4949767;28;20089;-74
2021/10/24 09:35:50;;;;;;;7.50;3.13;;;8.50;84.90;;;;;;4953322;28;20488;-73
2021/10/24 09:38:22;;;;;;;4.80;2.88;;;8.60;84.80;;;;;;4956448;28;20539;-74
2021/10/24 09:40:54;;;;;;;8.82;3.20;;;8.80;83.60;;;;;;4951442;28;20019;-73
2021/10/24 09:43:22;;;;;;;8.15;2.63;;;8.80;82.80;;;;;;4957842;28;20422;-72
2021/10/24 09:45:51;;;;;;;8.48;3.20;;;8.80;82.40;;;;;;4949052;28;20032;-74
2021/10/24 09:48:19;;;;;;;6.72;3.20;;;9.20;84.70;;;;;;4960024;28;20035;-74
2021/10/24 09:50:50;;;;;;;9.18;3.03;;;9.30;84.10;;;;;;4961423;28;20130;-73
2021/10/24 09:53:32;;;;;;;10.90;3.25;;;9.70;85.60;;;;;;4946807;28;21342;-74
2021/10/24 09:56:00;;;;;;;8.85;3.30;;;9.60;81.90;;;;;;4945590;28;20041;-72
2021/10/24 09:58:45;;;;;;;8.13;3.20;;;9.60;79.60;;;;;;4951032;28;20544;-74
2021/10/24 10:01:13;;;;;;;6.90;3.17;;;9.90;81.80;;;;;;4948887;28;20035;-74
2021/10/24 10:03:45;;;;;;;10.10;3.05;;;9.90;80.90;;;;;;4953897;28;20475;-73
2021/10/24 10:06:10;;;;;;;7.22;2.75;;;10.10;80.20;;;;;;4946261;28;20050;-74
2021/10/24 10:08:39;;;;;;;7.30;2.67;;;10.20;80.60;;;;;;4954711;28;20069;-74
2021/10/24 10:11:10;;;;;;;8.85;2.90;;;10.20;79.70;;;;;;4955093;28;20038;-73
2021/10/24 10:13:40;;;;;;;5.50;2.67;;;10.20;78.40;;;;;;4955190;28;20471;-74
2021/10/24 10:16:11;;;;;;;8.10;3.10;;;10.30;80.60;;;;;;4947451;28;20505;-73
2021/10/24 10:18:55;;;;;;;5.20;2.60;;;10.50;78.60;;;;;;4949163;28;20035;-74
2021/10/24 10:21:29;;;;;;;8.10;2.47;;;10.70;79.60;;;;;;4947206;28;20027;-73
2021/10/24 10:23:55;;;;;;;5.85;2.47;;;10.80;78.90;;;;;;4950311;28;20031;-73
2021/10/24 10:26:30;;;;;;;8.25;2.55;;;10.90;77.80;;;;;;4950910;28;20131;-73
2021/10/24 10:28:55;;;;;;;7.53;2.60;;;11.00;78.90;;;;;;4954652;28;20107;-73
2021/10/24 10:31:21;;;;;;;9.00;2.45;;;11.00;76.80;;;;;;4952323;28;20532;-74
2021/10/24 10:34:05;;;;;;;7.43;2.30;;;10.80;76.10;;;;;;4957196;28;20035;-73
2021/10/24 10:36:47;;;;;;;8.63;2.45;;;11.00;77.40;;;;;;4947969;28;20031;-73
2021/10/24 10:39:31;;;;;;;9.23;2.90;;;10.80;75.30;;;;;;4943401;28;20027;-73
2021/10/24 10:41:58;;;;;;;8.50;2.67;;;11.10;76.10;;;;;;4948419;28;20027;-72
2021/10/24 10:44:24;;;;;;;7.25;2.70;;;11.10;76.10;;;;;;4946476;28;20119;-74
2021/10/24 10:46:49;;;;;;;7.13;2.15;;;11.30;78.20;;;;;;4944108;28;20119;-73
2021/10/24 10:49:21;;;;;;;5.20;2.40;;;11.30;75.00;;;;;;4959024;28;20039;-72
2021/10/24 10:51:46;;;;;;;5.85;2.30;;;11.20;73.80;;;;;;4959164;28;20027;-74
2021/10/24 10:54:12;;;;;;;11.45;2.28;;;11.50;75.50;;;;;;4961018;28;20130;-74
2021/10/24 10:56:45;;;;;;;7.28;2.20;;;11.40;73.90;;;;;;4952071;28;20241;-73
2021/10/24 10:59:14;;;;;;;8.68;2.20;;;11.50;73.10;;;;;;4952968;28;20072;-74
2021/10/24 11:01:40;;;;;;;7.40;2.17;;;11.60;73.80;;;;;;4952782;28;20045;-74
2021/10/24 11:04:13;;;;;;;7.00;2.40;;;11.80;74.40;;;;;;4954059;28;20027;-74
2021/10/24 11:06:39;;;;;;;7.45;2.40;;;12.00;75.40;;;;;;4960776;28;20033;-74
2021/10/24 11:09:11;;;;;;;3.88;2.03;;;12.10;73.70;;;;;;4945157;28;20038;-74
2021/10/24 11:11:40;;;;;;;9.30;2.22;;;12.10;72.00;;;;;;4953105;28;20105;-73
2021/10/24 11:14:14;;;;;;;6.55;2.20;;;12.10;71.60;;;;;;4951595;28;20073;-75
2021/10/24 11:16:57;;;;;;;8.15;2.20;;;12.20;71.60;;;;;;4942995;28;20549;-74
2021/10/24 11:19:28;;;;;;;9.10;2.17;;;12.30;72.20;;;;;;4945109;28;20331;-74
2021/10/24 11:22:24;;;;;;;6.55;2.20;;;12.40;71.80;;;;;;4958101;28;20119;-73
2021/10/24 11:24:52;;;;;;;5.72;1.83;;;12.60;70.60;;;;;;4947779;28;20581;-74
2021/10/24 11:27:20;;;;;;;4.85;1.65;;;12.40;69.90;;;;;;4951219;28;20031;-75
2021/10/24 11:30:01;;;;;;;6.22;2.00;;;12.30;68.70;;;;;;4949484;28;20023;-74
2021/10/24 11:32:30;;;;;;;;;;;12.40;68.70;;;;;;4949167;28;20027;-75
2021/10/24 11:34:57;;;;;;;9.90;2.05;;;12.80;70.10;;;;;;4952500;28;19914;-74
2021/10/24 11:37:40;;;;;;;7.63;1.85;;;13.00;70.80;;;;;;4956814;28;20026;-74
2021/10/24 11:40:16;;;;;;;5.50;2.00;;;12.60;67.90;;;;;;4957195;28;20361;-74
2021/10/24 11:43:13;;;;;;;4.60;1.83;;;13.00;69.10;;;;;;4945092;28;20523;-75
2021/10/24 11:45:54;;;;;;;5.93;1.85;;;12.90;70.00;;;;;;4938629;28;20454;-74
2021/10/24 11:48:28;;;;;;;3.63;1.40;;;13.00;66.70;;;;;;4945334;28;20580;-74
2021/10/24 11:51:00;;;;;;;6.38;1.70;;;13.10;66.00;;;;;;4955443;28;20543;-75
2021/10/24 11:53:27;;;;;;;6.43;1.50;;;13.10;63.90;;;;;;4945943;28;20481;-75
2021/10/24 11:55:55;;;;;;;6.30;1.83;;;13.50;64.80;;;;;;4946202;28;20035;-74
2021/10/24 12:01:26;;;;;;;4.47;1.48;;;13.80;64.70;;;;;;4935903;28;20039;-75
2021/10/24 12:03:53;;;;;;;4.78;1.30;;;13.90;64.60;;;;;;4956786;28;20420;-75
2021/10/24 12:06:39;;;;;;;6.50;1.42;;;13.80;60.90;;;;;;4950927;28;20488;-75
2021/10/24 12:09:05;;;;;;;5.05;1.75;;;14.10;64.00;;;;;;4951109;28;20042;-74
2021/10/24 12:11:46;;;;;;;8.15;1.50;;;14.20;62.50;;;;;;4944975;28;20046;-73
2021/10/24 12:14:12;;;;;;;4.60;1.75;;;14.10;61.90;;;;;;4937148;28;20703;-74
2021/10/24 12:16:41;;;;;;;6.07;1.92;;;14.40;62.30;;;;;;4945559;28;20042;-74
2021/10/24 12:19:17;;;;;;;2.90;1.33;;;14.00;60.80;;;;;;4954963;28;20051;-74
2021/10/24 12:22:04;;;;;;;4.35;1.40;;;14.20;60.20;;;;;;4947434;28;20026;-74
2021/10/24 12:24:43;;;;;;;3.13;1.45;;;14.30;60.30;;;;;;4947568;28;20027;-74
2021/10/24 12:27:35;;;;;;;6.15;1.45;;;14.30;59.90;;;;;;4936441;28;20122;-74
2021/10/24 12:30:13;;;;;;;3.92;1.45;;;14.40;59.40;;;;;;4944625;28;20055;-74
2021/10/24 12:33:01;;;;;;;4.65;1.55;;;14.30;58.50;;;;;;4948875;28;20031;-74
2021/10/24 12:35:27;;;;;;;2.97;1.25;;;14.60;59.20;;;;;;4955329;28;20030;-74
2021/10/24 12:38:00;;;;;;;6.72;1.70;;;14.00;57.20;;;;;;4954140;28;20026;-74
2021/10/24 12:40:29;;;;;;;5.50;1.42;;;14.20;57.90;;;;;;4947219;28;20078;-75
2021/10/24 12:43:06;;;;;;;5.78;1.33;;;14.30;58.50;;;;;;4943454;28;20082;-74
2021/10/24 12:45:52;;;;;;;6.80;1.60;;;14.60;56.20;;;;;;4943193;28;20281;-74
2021/10/24 12:48:19;;;;;;;5.22;1.42;;;14.60;55.10;;;;;;4944150;28;20098;-74
2021/10/24 12:50:46;;;;;;;3.25;1.35;;;15.20;57.40;;;;;;4955748;28;20023;-75
2021/10/24 12:53:17;;;;;;;3.42;1.20;;;15.40;54.50;;;;;;4921295;28;20369;-74
2021/10/24 12:56:05;;;;;;;6.15;1.35;;;15.60;55.80;;;;;;4946237;28;20045;-74